Time;durP1;ratioP1;P1;durP2;ratioP2;P2;SDS_P1;SDS_P2;PMS_P1;PMS_P2;Temp;Humidity;BMP_temperature;BMP_pressure;BME280_temperature;BME280_humidity;BME280_pressure;Samples;Min_cycle;Max_cycle;Signal;HPM_P1;HPM_P2
2021/11/21 00:01:45;;;;;;;27.10;16.87;;;;;;;;;;5042676;28;20204;-72
2021/11/21 00:04:10;;;;;;;25.23;15.57;;;;;;;;;;5041015;28;20864;-72
2021/11/21 00:06:35;;;;;;;24.90;15.13;;;;;;;;;;5041468;28;20189;-73
2021/11/21 00:09:00;;;;;;;22.20;13.67;;;;;;;;;;5042242;28;20179;-72
2021/11/21 00:11:26;;;;;;;22.43;12.90;;;;;;;;;;5049227;28;20638;-72
2021/11/21 00:13:52;;;;;;;18.67;12.70;;;;;;;;;;5048663;28;20212;-72
2021/11/21 00:16:17;;;;;;;18.47;11.80;;;;;;;;;;5044537;28;20192;-74
2021/11/21 00:18:42;;;;;;;17.77;10.67;;;;;;;;;;5051748;28;20563;-72
2021/11/21 00:21:08;;;;;;;22.17;10.70;;;;;;;;;;5048224;28;20173;-71
2021/11/21 00:23:33;;;;;;;15.93;10.37;;;;;;;;;;5046531;28;20263;-72
2021/11/21 00:25:59;;;;;;;17.77;10.30;;;;;;;;;;5016141;28;20190;-74
2021/11/21 00:28:24;;;;;;;17.63;10.57;;;;;;;;;;5032749;28;20193;-72
2021/11/21 00:30:50;;;;;;;18.23;10.10;;;;;;;;;;5034507;28;20196;-74
2021/11/21 00:33:15;;;;;;;17.17;11.17;;;;;;;;;;5032068;28;20202;-74
2021/11/21 00:35:40;;;;;;;16.70;9.67;;;;;;;;;;5032124;28;20723;-72
2021/11/21 00:38:05;;;;;;;16.83;9.83;;;;;;;;;;5022041;28;20212;-75
2021/11/21 00:40:31;;;;;;;15.83;9.40;;;;;;;;;;5033981;28;20454;-72
2021/11/21 00:42:57;;;;;;;13.87;9.17;;;;;;;;;;5031977;28;21279;-74
2021/11/21 00:45:23;;;;;;;14.60;9.10;;;;;;;;;;5033673;28;20179;-72
2021/11/21 00:47:48;;;;;;;13.20;8.37;;;;;;;;;;5035761;28;20180;-74
2021/11/21 00:50:15;;;;;;;13.00;8.37;;;;;;;;;;5031571;28;20301;-72
2021/11/21 00:52:40;;;;;;;15.67;9.07;;;;;;;;;;5029027;28;20209;-72
2021/11/21 00:55:11;;;;;;;16.17;8.87;;;;;;;;;;5036261;28;20262;-72
2021/11/21 00:57:37;;;;;;;15.77;9.63;;;;;;;;;;5029417;28;20299;-75
2021/11/21 01:00:03;;;;;;;14.47;9.40;;;;;;;;;;5028926;28;20680;-72
2021/11/21 01:02:28;;;;;;;14.07;8.57;;;;;;;;;;5028987;28;20220;-73
2021/11/21 01:04:53;;;;;;;12.80;8.93;;;;;;;;;;5028697;28;20263;-71
2021/11/21 01:07:21;;;;;;;15.90;9.80;;;;;;;;;;5029621;28;20216;-72
2021/11/21 01:09:46;;;;;;;14.83;9.17;;;;;;;;;;5035973;28;20258;-73
2021/11/21 01:12:11;;;;;;;16.77;10.47;;;;;;;;;;5029044;28;20717;-74
2021/11/21 01:14:37;;;;;;;18.53;10.70;;;;;;;;;;5032421;28;20193;-73
2021/11/21 01:17:03;;;;;;;14.00;9.27;;;;;;;;;;5035833;28;20579;-72
2021/11/21 01:19:28;;;;;;;19.00;10.27;;;;;;;;;;5031172;28;20177;-74
2021/11/21 01:21:53;;;;;;;17.87;10.60;;;;;;;;;;5028524;28;20197;-72
2021/11/21 01:24:19;;;;;;;18.27;10.93;;;;;;;;;;5030763;28;20264;-74
2021/11/21 01:26:44;;;;;;;19.20;11.47;;;;;;;;;;5029610;28;20186;-75
2021/11/21 01:29:09;;;;;;;20.37;11.70;;;;;;;;;;5031225;28;20217;-73
2021/11/21 01:31:35;;;;;;;18.43;11.23;;;;;;;;;;5030285;28;20193;-73
2021/11/21 01:34:00;;;;;;;21.93;11.87;;;;;;;;;;5030209;28;20256;-76
2021/11/21 01:36:25;;;;;;;18.73;11.67;;;;;;;;;;5034719;28;20224;-71
2021/11/21 01:38:50;;;;;;;18.93;11.87;;;;;;;;;;5029082;28;20217;-75
2021/11/21 01:41:16;;;;;;;25.03;14.27;;;;;;;;;;5031797;28;20173;-75
2021/11/21 01:43:42;;;;;;;23.33;13.33;;;;;;;;;;5032336;28;20185;-72
2021/11/21 01:46:07;;;;;;;21.87;14.73;;;;;;;;;;5032522;28;20186;-71
2021/11/21 01:48:33;;;;;;;27.70;16.23;;;;;;;;;;5031766;28;20203;-75
2021/11/21 01:51:00;;;;;;;25.70;17.10;;;;;;;;;;5030115;28;20341;-71
2021/11/21 01:53:25;;;;;;;30.23;18.23;;;;;;;;;;5052039;28;20209;-75
2021/11/21 01:55:50;;;;;;;28.90;17.10;;;;;;;;;;5029622;28;20258;-72
2021/11/21 01:58:16;;;;;;;29.43;17.73;;;;;;;;;;5031408;28;20209;-73
2021/11/21 02:00:42;;;;;;;32.47;18.20;;;;;;;;;;5029480;28;20668;-72
2021/11/21 02:03:07;;;;;;;34.20;19.73;;;;;;;;;;5030570;28;20707;-74
2021/11/21 02:05:33;;;;;;;34.00;18.30;;;;;;;;;;5031172;28;20288;-72
2021/11/21 02:07:58;;;;;;;31.97;19.40;;;;;;;;;;5029037;28;20196;-72
2021/11/21 02:10:24;;;;;;;29.77;20.00;;;;;;;;;;5029399;28;20186;-72
2021/11/21 02:12:50;;;;;;;32.63;18.67;;;;;;;;;;5062531;22;20707;-78
2021/11/21 02:15:16;;;;;;;28.73;18.20;;;;;;;;;;5055839;28;20192;-78
2021/11/21 02:17:42;;;;;;;30.80;20.00;;;;;;;;;;5073457;28;20262;-79
2021/11/21 02:20:08;;;;;;;35.10;20.47;;;;;;;;;;5074159;28;20184;-79
2021/11/21 02:22:35;;;;;;;34.47;20.23;;;;;;;;;;5065834;28;20296;-78
2021/11/21 02:25:00;;;;;;;34.93;21.37;;;;;;;;;;5056234;28;20184;-78
2021/11/21 02:27:28;;;;;;;31.27;19.63;;;;;;;;;;5053560;28;20638;-81
2021/11/21 02:29:53;;;;;;;37.83;24.00;;;;;;;;;;5055810;28;20271;-80
2021/11/21 02:32:18;;;;;;;32.40;20.67;;;;;;;;;;5057306;28;21848;-77
2021/11/21 02:34:44;;;;;;;32.47;20.20;;;;;;;;;;5052890;28;21801;-78
2021/11/21 02:37:09;;;;;;;34.27;21.60;;;;;;;;;;5039078;28;20200;-78
2021/11/21 02:39:36;;;;;;;32.33;18.93;;;;;;;;;;5054640;28;20267;-77
2021/11/21 02:42:01;;;;;;;37.07;20.83;;;;;;;;;;5054572;28;20239;-79
2021/11/21 02:44:29;;;;;;;36.13;20.30;;;;;;;;;;5053873;28;20305;-80
2021/11/21 02:46:55;;;;;;;34.07;19.37;;;;;;;;;;5060408;28;20183;-82
2021/11/21 02:49:20;;;;;;;33.67;20.90;;;;;;;;;;5066267;28;20177;-76
2021/11/21 02:51:45;;;;;;;31.43;20.10;;;;;;;;;;5072695;28;20177;-76
2021/11/21 02:54:10;;;;;;;34.73;20.60;;;;;;;;;;5071760;28;20189;-76
2021/11/21 02:56:35;;;;;;;33.03;20.60;;;;;;;;;;5059385;28;20200;-77
2021/11/21 02:59:01;;;;;;;32.27;19.37;;;;;;;;;;5058060;28;20234;-76
2021/11/21 03:01:27;;;;;;;35.10;19.23;;;;;;;;;;5054836;28;20185;-78
2021/11/21 03:03:52;;;;;;;31.83;19.13;;;;;;;;;;5058177;28;20295;-76
2021/11/21 03:06:18;;;;;;;30.43;20.30;;;;;;;;;;5058719;28;20333;-76
2021/11/21 03:08:43;;;;;;;34.40;19.90;;;;;;;;;;5058325;28;20181;-76
2021/11/21 03:11:28;;;;;;;35.23;20.70;;;;;;;;;;5059497;28;20238;-78
2021/11/21 03:13:54;;;;;;;35.03;21.30;;;;;;;;;;5054465;28;20205;-76
2021/11/21 03:16:19;;;;;;;42.47;19.87;;;;;;;;;;5061308;28;20826;-76
2021/11/21 03:18:44;;;;;;;31.20;21.00;;;;;;;;;;5056270;28;20666;-79
2021/11/21 03:21:12;;;;;;;33.53;19.33;;;;;;;;;;5056632;28;20241;-76
2021/11/21 03:23:37;;;;;;;30.90;19.70;;;;;;;;;;5057225;28;20276;-77
2021/11/21 03:26:02;;;;;;;29.93;18.97;;;;;;;;;;5055630;28;21695;-78
2021/11/21 03:28:28;;;;;;;31.57;18.77;;;;;;;;;;5055942;28;20177;-78
2021/11/21 03:30:53;;;;;;;33.13;20.03;;;;;;;;;;5058651;28;20184;-78
2021/11/21 03:33:18;;;;;;;30.50;17.53;;;;;;;;;;5056701;28;20683;-78
2021/11/21 03:35:43;;;;;;;31.57;18.77;;;;;;;;;;5039805;28;20181;-77
2021/11/21 03:38:09;;;;;;;33.30;18.40;;;;;;;;;;5059100;28;20239;-79
2021/11/21 03:40:34;;;;;;;32.83;19.73;;;;;;;;;;5038327;28;20264;-79
2021/11/21 03:43:00;;;;;;;32.70;19.47;;;;;;;;;;5056582;28;20829;-78
2021/11/21 03:45:26;;;;;;;30.03;19.07;;;;;;;;;;5058724;28;20685;-80
2021/11/21 03:47:51;;;;;;;28.73;17.77;;;;;;;;;;5058263;28;20180;-79
2021/11/21 03:50:17;;;;;;;30.30;16.97;;;;;;;;;;5040486;28;20181;-77
2021/11/21 03:52:43;;;;;;;31.20;17.13;;;;;;;;;;5059721;28;20211;-77
2021/11/21 03:55:09;;;;;;;28.77;16.97;;;;;;;;;;5054797;28;20184;-79
2021/11/21 03:57:35;;;;;;;28.80;17.10;;;;;;;;;;5055559;28;20295;-77
2021/11/21 04:00:00;;;;;;;25.47;16.97;;;;;;;;;;5058791;28;20619;-79
2021/11/21 04:02:25;;;;;;;24.50;14.90;;;;;;;;;;5062301;28;20196;-80
2021/11/21 04:04:50;;;;;;;19.23;12.47;;;;;;;;;;5060889;28;20169;-78
2021/11/21 04:07:16;;;;;;;19.97;12.93;;;;;;;;;;5056378;28;20173;-79
2021/11/21 04:09:41;;;;;;;15.70;10.77;;;;;;;;;;5055796;28;20716;-78
2021/11/21 04:12:06;;;;;;;18.10;11.50;;;;;;;;;;5055252;28;20645;-79
2021/11/21 04:14:31;;;;;;;13.53;9.30;;;;;;;;;;5055348;28;20181;-80
2021/11/21 04:16:57;;;;;;;12.27;8.30;;;;;;;;;;5059626;28;20238;-78
2021/11/21 04:19:22;;;;;;;13.53;7.87;;;;;;;;;;5055527;28;21310;-79
2021/11/21 04:21:47;;;;;;;15.33;8.53;;;;;;;;;;5057122;28;20643;-81
2021/11/21 04:24:13;;;;;;;8.87;6.90;;;;;;;;;;5053516;28;20558;-78
2021/11/21 04:26:43;;;;;;;10.80;6.50;;;;;;;;;;5055964;28;20177;-79
2021/11/21 04:29:09;;;;;;;6.57;4.90;;;;;;;;;;5054810;28;20240;-79
2021/11/21 04:31:34;;;;;;;7.37;4.93;;;;;;;;;;5040120;28;20185;-79
2021/11/21 04:33:59;;;;;;;5.27;4.00;;;;;;;;;;5039068;28;20725;-79
2021/11/21 04:36:24;;;;;;;6.93;3.67;;;;;;;;;;5040059;28;20177;-78
2021/11/21 04:38:49;;;;;;;5.20;3.43;;;;;;;;;;5036510;28;20734;-78
2021/11/21 04:41:15;;;;;;;6.97;3.07;;;;;;;;;;5056387;28;20185;-79
2021/11/21 04:43:40;;;;;;;6.30;2.67;;;;;;;;;;5036557;28;20193;-80
2021/11/21 04:46:05;;;;;;;4.17;2.13;;;;;;;;;;5057785;28;20184;-78
2021/11/21 04:48:31;;;;;;;4.30;2.20;;;;;;;;;;5058383;28;20657;-77
2021/11/21 04:50:57;;;;;;;2.27;1.67;;;;;;;;;;5039588;28;20238;-78
2021/11/21 04:53:22;;;;;;;4.83;2.20;;;;;;;;;;5054394;28;20196;-79
2021/11/21 04:55:47;;;;;;;4.33;1.63;;;;;;;;;;5037397;28;20185;-80
2021/11/21 04:58:14;;;;;;;3.17;1.60;;;;;;;;;;5055491;28;20690;-79
2021/11/21 05:00:39;;;;;;;5.00;1.60;;;;;;;;;;5055323;28;20226;-78
2021/11/21 05:03:04;;;;;;;4.10;1.43;;;;;;;;;;5037785;28;20988;-78
2021/11/21 05:05:30;;;;;;;1.70;1.40;;;;;;;;;;5053829;28;20216;-78
2021/11/21 05:07:55;;;;;;;3.03;1.97;;;;;;;;;;5040497;28;20176;-79
2021/11/21 05:10:21;;;;;;;5.47;2.17;;;;;;;;;;5055109;28;20183;-79
2021/11/21 05:12:46;;;;;;;4.97;1.77;;;;;;;;;;5058132;28;20215;-80
2021/11/21 05:15:13;;;;;;;6.70;1.90;;;;;;;;;;5055044;28;20185;-79
2021/11/21 05:17:38;;;;;;;4.83;2.17;;;;;;;;;;5055843;28;20226;-78
2021/11/21 05:20:04;;;;;;;4.90;2.23;;;;;;;;;;5054295;28;20181;-78
2021/11/21 05:22:30;;;;;;;3.67;1.77;;;;;;;;;;5055664;28;20284;-78
2021/11/21 05:24:55;;;;;;;4.07;1.93;;;;;;;;;;5054998;28;20177;-79
2021/11/21 05:27:21;;;;;;;4.50;1.93;;;;;;;;;;5056805;28;20216;-81
2021/11/21 05:29:46;;;;;;;4.20;2.37;;;;;;;;;;5055782;28;20191;-79
2021/11/21 05:32:12;;;;;;;3.40;1.70;;;;;;;;;;5056024;28;20201;-78
2021/11/21 05:34:37;;;;;;;3.67;2.00;;;;;;;;;;5056157;28;20204;-80
2021/11/21 05:37:03;;;;;;;4.87;2.00;;;;;;;;;;5056663;28;20209;-78
2021/11/21 05:39:28;;;;;;;3.23;2.10;;;;;;;;;;5053290;28;20787;-78
2021/11/21 05:41:53;;;;;;;3.90;1.70;;;;;;;;;;5038303;28;20279;-78
2021/11/21 05:44:18;;;;;;;4.40;1.90;;;;;;;;;;5037913;28;20182;-78
2021/11/21 05:46:43;;;;;;;5.23;1.80;;;;;;;;;;5056451;28;20180;-78
2021/11/21 05:49:09;;;;;;;3.53;1.50;;;;;;;;;;5054908;28;20649;-78
2021/11/21 05:51:35;;;;;;;6.93;1.90;;;;;;;;;;5036121;28;20673;-79
2021/11/21 05:54:00;;;;;;;4.17;1.70;;;;;;;;;;5037056;28;20176;-79
2021/11/21 05:56:25;;;;;;;5.80;1.60;;;;;;;;;;5054027;28;20185;-77
2021/11/21 05:58:50;;;;;;;4.60;2.00;;;;;;;;;;5054950;28;20211;-81
2021/11/21 06:01:16;;;;;;;7.97;1.87;;;;;;;;;;5056018;28;20619;-77
2021/11/21 06:03:42;;;;;;;4.07;1.40;;;;;;;;;;5054581;28;20335;-78
2021/11/21 06:06:07;;;;;;;6.30;2.70;;;;;;;;;;5035826;28;20658;-77
2021/11/21 06:08:32;;;;;;;8.53;1.67;;;;;;;;;;5063857;28;20176;-77
2021/11/21 06:10:57;;;;;;;3.70;1.33;;;;;;;;;;5053121;28;20184;-78
2021/11/21 06:13:25;;;;;;;6.80;1.63;;;;;;;;;;5055221;28;20579;-77
2021/11/21 06:15:50;;;;;;;5.53;1.33;;;;;;;;;;5059760;28;20710;-77
2021/11/21 06:18:15;;;;;;;5.93;1.40;;;;;;;;;;5055150;28;20208;-77
2021/11/21 06:20:40;;;;;;;7.00;1.40;;;;;;;;;;5036652;28;21231;-79
2021/11/21 06:23:06;;;;;;;4.47;1.37;;;;;;;;;;5036701;28;20322;-77
2021/11/21 06:25:31;;;;;;;4.10;1.50;;;;;;;;;;5053011;28;20180;-78
2021/11/21 06:27:56;;;;;;;6.63;1.30;;;;;;;;;;5056095;28;20196;-77
2021/11/21 06:30:21;;;;;;;4.77;1.33;;;;;;;;;;5057925;28;20742;-79
2021/11/21 06:32:47;;;;;;;5.37;1.60;;;;;;;;;;5064270;28;20713;-77
2021/11/21 06:35:12;;;;;;;12.30;1.77;;;;;;;;;;5061311;28;20177;-78
2021/11/21 06:37:37;;;;;;;8.07;1.27;;;;;;;;;;5064012;28;20715;-79
2021/11/21 06:40:04;;;;;;;5.60;1.67;;;;;;;;;;5056863;28;20173;-77
2021/11/21 06:42:29;;;;;;;8.27;1.40;;;;;;;;;;5057090;28;20280;-78
2021/11/21 06:44:54;;;;;;;4.77;1.90;;;;;;;;;;5037590;28;20176;-80
2021/11/21 06:47:22;;;;;;;8.63;2.13;;;;;;;;;;5058573;28;20728;-78
2021/11/21 06:49:47;;;;;;;5.80;1.37;;;;;;;;;;5057446;28;20305;-78
2021/11/21 06:52:13;;;;;;;5.77;1.30;;;;;;;;;;5056378;28;20221;-79
2021/11/21 06:54:38;;;;;;;9.83;1.33;;;;;;;;;;5057375;28;20181;-78
2021/11/21 06:57:04;;;;;;;7.43;2.03;;;;;;;;;;5039909;28;20260;-78
2021/11/21 06:59:29;;;;;;;6.50;1.77;;;;;;;;;;5037082;28;20560;-80
2021/11/21 07:01:54;;;;;;;6.67;1.23;;;;;;;;;;5042476;28;20895;-76
2021/11/21 07:04:19;;;;;;;7.43;1.93;;;;;;;;;;5057534;28;20325;-78
2021/11/21 07:06:46;;;;;;;11.40;2.53;;;;;;;;;;5058365;28;21303;-78
2021/11/21 07:09:13;;;;;;;6.70;1.87;;;;;;;;;;5056759;28;20748;-77
2021/11/21 07:11:38;;;;;;;5.77;1.53;;;;;;;;;;5058026;28;20189;-80
2021/11/21 07:14:04;;;;;;;5.40;1.63;;;;;;;;;;5060848;28;20224;-76
2021/11/21 07:16:29;;;;;;;7.70;1.30;;;;;;;;;;5041820;28;20188;-77
2021/11/21 07:18:55;;;;;;;5.57;1.80;;;;;;;;;;5057896;28;20207;-77
2021/11/21 07:21:20;;;;;;;6.33;1.80;;;;;;;;;;5057372;28;21724;-76
2021/11/21 07:23:45;;;;;;;9.60;1.73;;;;;;;;;;5038502;28;20204;-77
2021/11/21 07:26:10;;;;;;;8.67;2.10;;;;;;;;;;5039277;28;20264;-78
2021/11/21 07:28:36;;;;;;;9.90;2.77;;;;;;;;;;5057230;28;20185;-77
2021/11/21 07:31:01;;;;;;;12.20;2.50;;;;;;;;;;5039486;28;20264;-77
2021/11/21 07:33:26;;;;;;;6.73;2.20;;;;;;;;;;5055295;28;20358;-77
2021/11/21 07:35:53;;;;;;;8.27;1.57;;;;;;;;;;5037479;28;20180;-77
2021/11/21 07:38:19;;;;;;;9.67;2.00;;;;;;;;;;5057292;28;20835;-77
2021/11/21 07:40:45;;;;;;;9.70;1.70;;;;;;;;;;5060435;28;20484;-77
2021/11/21 07:43:10;;;;;;;7.27;2.10;;;;;;;;;;5054866;28;20574;-76
2021/11/21 07:45:35;;;;;;;14.83;1.90;;;;;;;;;;5056713;28;20196;-78
2021/11/21 07:48:00;;;;;;;8.47;1.77;;;;;;;;;;5059178;28;20177;-79
2021/11/21 07:50:25;;;;;;;9.33;2.00;;;;;;;;;;5041108;28;20176;-78
2021/11/21 07:52:51;;;;;;;7.73;1.90;;;;;;;;;;5057493;28;20741;-79
2021/11/21 07:55:16;;;;;;;6.60;1.63;;;;;;;;;;5057027;28;20635;-77
2021/11/21 07:57:41;;;;;;;9.13;2.10;;;;;;;;;;5058485;28;20885;-79
2021/11/21 08:00:08;;;;;;;7.50;2.20;;;;;;;;;;5058845;28;20638;-78
2021/11/21 08:02:34;;;;;;;8.97;1.87;;;;;;;;;;5058255;28;20246;-79
2021/11/21 08:04:59;;;;;;;6.97;1.70;;;;;;;;;;5039194;28;20311;-79
2021/11/21 08:07:24;;;;;;;4.97;1.93;;;;;;;;;;5057276;28;20276;-78
2021/11/21 08:09:49;;;;;;;6.23;1.83;;;;;;;;;;5039672;28;20180;-79
2021/11/21 08:12:14;;;;;;;8.63;1.70;;;;;;;;;;5072371;22;20351;-73
2021/11/21 08:14:40;;;;;;;9.77;1.50;;;;;;;;;;5053581;28;20249;-73
2021/11/21 08:17:05;;;;;;;8.70;1.77;;;;;;;;;;5045606;28;20268;-73
2021/11/21 08:19:30;;;;;;;6.07;1.70;;;;;;;;;;5054795;28;20181;-75
2021/11/21 08:21:55;;;;;;;6.90;1.70;;;;;;;;;;5042820;28;20474;-74
2021/11/21 08:24:21;;;;;;;5.03;1.27;;;;;;;;;;5052291;28;20185;-72
2021/11/21 08:26:46;;;;;;;9.70;2.07;;;;;;;;;;5051249;28;20177;-72
2021/11/21 08:29:11;;;;;;;6.97;1.77;;;;;;;;;;5054712;28;20604;-73
2021/11/21 08:31:36;;;;;;;7.77;1.60;;;;;;;;;;5054304;28;20198;-72
2021/11/21 08:34:02;;;;;;;8.43;1.70;;;;;;;;;;5052187;28;20205;-75
2021/11/21 08:36:27;;;;;;;11.13;2.30;;;;;;;;;;5053056;28;20177;-72
2021/11/21 08:38:52;;;;;;;9.87;2.30;;;;;;;;;;5052288;28;20544;-74
2021/11/21 08:41:17;;;;;;;9.47;3.53;;;;;;;;;;5056059;28;20185;-73
2021/11/21 08:43:43;;;;;;;12.87;1.83;;;;;;;;;;5052709;28;20197;-73
2021/11/21 08:46:08;;;;;;;9.83;2.70;;;;;;;;;;5053614;28;20177;-72
2021/11/21 08:48:33;;;;;;;9.23;2.93;;;;;;;;;;5057775;28;20184;-73
2021/11/21 08:50:59;;;;;;;5.40;2.00;;;;;;;;;;5051304;28;20177;-75
2021/11/21 08:53:24;;;;;;;9.03;1.80;;;;;;;;;;5050975;28;20250;-75
2021/11/21 08:55:49;;;;;;;10.13;1.80;;;;;;;;;;5050051;28;20180;-74
2021/11/21 08:58:15;;;;;;;5.50;1.80;;;;;;;;;;5050357;28;20330;-75
2021/11/21 09:00:40;;;;;;;10.67;1.87;;;;;;;;;;5053148;28;20571;-73
2021/11/21 09:03:05;;;;;;;14.73;2.70;;;;;;;;;;5050461;28;20677;-73
2021/11/21 09:05:30;;;;;;;5.73;1.57;;;;;;;;;;5052304;28;20188;-72
2021/11/21 09:07:56;;;;;;;6.80;2.20;;;;;;;;;;5052439;28;20208;-73
2021/11/21 09:10:21;;;;;;;8.13;2.13;;;;;;;;;;5051300;28;20260;-73
2021/11/21 09:12:47;;;;;;;5.33;1.60;;;;;;;;;;5052195;28;20213;-75
2021/11/21 09:15:14;;;;;;;5.10;1.70;;;;;;;;;;5051141;28;20192;-73
2021/11/21 09:17:40;;;;;;;6.63;1.60;;;;;;;;;;5054830;28;20231;-73
2021/11/21 09:20:05;;;;;;;14.37;3.00;;;;;;;;;;5052902;28;20271;-73
2021/11/21 09:22:31;;;;;;;7.83;1.93;;;;;;;;;;5052247;28;20197;-77
2021/11/21 09:24:56;;;;;;;9.77;2.40;;;;;;;;;;5051811;28;20630;-71
2021/11/21 09:27:21;;;;;;;8.47;2.03;;;;;;;;;;5052792;28;20658;-72
2021/11/21 09:29:47;;;;;;;11.90;1.90;;;;;;;;;;5052070;28;20230;-74
2021/11/21 09:32:12;;;;;;;5.70;2.00;;;;;;;;;;5051573;28;20335;-74
2021/11/21 09:34:38;;;;;;;8.90;2.63;;;;;;;;;;5051689;28;20180;-72
2021/11/21 09:37:04;;;;;;;7.57;2.33;;;;;;;;;;5051620;28;20188;-72
2021/11/21 09:39:29;;;;;;;11.07;1.67;;;;;;;;;;5051103;28;20549;-72
2021/11/21 09:41:54;;;;;;;10.20;3.07;;;;;;;;;;5052534;28;20189;-71
2021/11/21 09:44:20;;;;;;;9.97;2.70;;;;;;;;;;5053557;28;20181;-72
2021/11/21 09:46:45;;;;;;;9.73;2.10;;;;;;;;;;5049423;28;20268;-71
2021/11/21 09:49:12;;;;;;;10.07;2.27;;;;;;;;;;5053066;28;20187;-72
2021/11/21 09:51:37;;;;;;;9.40;2.63;;;;;;;;;;5049171;28;20268;-72
2021/11/21 09:54:02;;;;;;;10.37;2.40;;;;;;;;;;5050234;28;20197;-73
2021/11/21 09:56:28;;;;;;;11.40;2.87;;;;;;;;;;5049861;28;20646;-72
2021/11/21 09:58:54;;;;;;;11.87;3.67;;;;;;;;;;5050433;28;20583;-72
2021/11/21 10:01:34;;;;;;;12.13;3.03;;;;;;;;;;5050531;28;20349;-75
2021/11/21 10:04:00;;;;;;;4.83;2.17;;;;;;;;;;5049456;28;20935;-72
2021/11/21 10:06:29;;;;;;;10.03;2.40;;;;;;;;;;5050569;28;20206;-74
2021/11/21 10:08:54;;;;;;;14.47;2.53;;;;;;;;;;5051805;28;20186;-72
2021/11/21 10:11:20;;;;;;;9.52;2.22;;;;;;;;;;5051015;28;20183;-72
2021/11/21 10:13:46;;;;;;;11.10;1.90;;;;;;;;;;5051990;28;20741;-72
2021/11/21 10:16:18;;;;;;;10.25;2.67;;;;;;;;;;5056568;28;20177;-74
2021/11/21 10:18:48;;;;;;;5.95;1.90;;;;;;;;;;5051159;28;20212;-74
2021/11/21 10:21:14;;;;;;;8.90;2.65;;;;;;;;;;5051054;28;20185;-72
2021/11/21 10:23:39;;;;;;;9.38;2.22;;;;;;;;;;5049486;28;20278;-74
2021/11/21 10:26:04;;;;;;;9.07;1.83;;;;;;;;;;5049047;28;21213;-72
2021/11/21 10:28:31;;;;;;;5.70;2.25;;;;;;;;;;5048788;28;20329;-72
2021/11/21 10:31:05;;;;;;;6.78;1.70;;;;;;;;;;5048437;28;20185;-71
2021/11/21 10:33:31;;;;;;;11.10;1.92;;;;;;;;;;5048193;28;20205;-72
2021/11/21 10:36:08;;;;;;;7.43;1.80;;;;;;;;;;5049256;28;20311;-72
2021/11/21 10:38:35;;;;;;;8.73;1.80;;;;;;;;;;5029256;28;20291;-72
2021/11/21 10:41:04;;;;;;;8.65;1.80;;;;;;;;;;5050788;28;20227;-72
2021/11/21 10:43:30;;;;;;;6.70;1.83;;;;;;;;;;5051231;28;20706;-74
2021/11/21 10:45:55;;;;;;;11.70;1.75;;;;;;;;;;5057715;28;20187;-73
2021/11/21 10:48:23;;;;;;;7.70;1.98;;;;;;;;;;5049904;28;20181;-75
2021/11/21 10:50:50;;;;;;;9.15;1.30;;;;;;;;;;5049420;28;20188;-74
2021/11/21 10:53:15;;;;;;;4.15;1.55;;;;;;;;;;5049518;28;20270;-72
2021/11/21 10:55:41;;;;;;;6.93;1.90;;;;;;;;;;5052685;28;20181;-71
2021/11/21 10:58:09;;;;;;;4.97;1.10;;;;;;;;;;5048941;28;20261;-73
2021/11/21 11:00:34;;;;;;;4.95;1.42;;;;;;;;;;5049460;28;20318;-72
2021/11/21 11:02:59;;;;;;;7.20;1.30;;;;;;;;;;5050006;28;20197;-72
2021/11/21 11:05:25;;;;;;;8.10;1.30;;;;;;;;;;5050383;28;20572;-72
2021/11/21 11:07:54;;;;;;;3.88;1.17;;;;;;;;;;5049469;28;20189;-72
2021/11/21 11:10:27;;;;;;;3.95;1.10;;;;;;;;;;5051760;28;20239;-73
2021/11/21 11:12:53;;;;;;;6.07;1.65;;;;;;;;;;5050612;28;20221;-75
2021/11/21 11:15:19;;;;;;;4.30;1.30;;;;;;;;;;5058701;28;20196;-71
2021/11/21 11:17:45;;;;;;;6.68;1.30;;;;;;;;;;5052028;28;20217;-72
2021/11/21 11:20:11;;;;;;;11.02;1.17;;;;;;;;;;5040856;28;20187;-73
2021/11/21 11:22:39;;;;;;;5.95;1.00;;;;;;;;;;5054367;28;20203;-71
2021/11/21 11:25:05;;;;;;;6.18;1.10;;;;;;;;;;5052536;28;20868;-71
2021/11/21 11:27:51;;;;;;;4.75;0.98;;;;;;;;;;5054671;28;20282;-73
2021/11/21 11:30:18;;;;;;;7.18;1.00;;;;;;;;;;5050958;28;20189;-72
2021/11/21 11:32:44;;;;;;;7.78;1.55;;;;;;;;;;5051638;28;20287;-71
2021/11/21 11:35:18;;;;;;;6.13;1.33;;;;;;;;;;5037109;28;22777;-73
2021/11/21 11:37:48;;;;;;;4.53;1.10;;;;;;;;;;5055529;28;20201;-73
2021/11/21 11:40:25;;;;;;;6.78;1.55;;;;;;;;;;5070754;28;20168;-70
2021/11/21 11:42:50;;;;;;;6.45;1.42;;;;;;;;;;5063147;28;20219;-71
2021/11/21 11:45:16;;;;;;;6.28;0.95;;;;;;;;;;5066863;28;20177;-71
2021/11/21 11:47:41;;;;;;;7.05;2.33;;;;;;;;;;5064873;28;20196;-72
2021/11/21 11:50:06;;;;;;;11.57;2.20;;;;;;;;;;5069558;28;20200;-70
2021/11/21 11:52:50;;;;;;;2.95;1.33;;;;;;;;;;5066246;28;20207;-71
2021/11/21 11:55:16;;;;;;;2.88;0.70;;;;;;;;;;5067079;28;20252;-71
2021/11/21 11:57:41;;;;;;;2.75;1.05;;;;;;;;;;5067379;28;20228;-71
2021/11/21 12:00:40;;;;;;;2.88;0.57;;;;;;;;;;5064043;28;20654;-73
2021/11/21 12:03:24;;;;;;;4.13;0.63;;;;;;;;;;5030573;28;20324;-73
2021/11/21 12:06:02;;;;;;;4.30;1.20;;;;;;;;;;5053131;28;21167;-73
2021/11/21 12:08:27;;;;;;;10.83;1.20;;;;;;;;;;5055779;28;20826;-76
2021/11/21 12:10:52;;;;;;;3.00;1.20;;;;;;;;;;5054817;28;20189;-72
2021/11/21 12:13:28;;;;;;;4.93;1.20;;;;;;;;;;5053368;28;20272;-71
2021/11/21 12:15:54;;;;;;;8.23;1.53;;;;;;;;;;5043089;28;20180;-74
2021/11/21 12:18:21;;;;;;;4.60;0.87;;;;;;;;;;5053511;28;20582;-73
2021/11/21 12:20:51;;;;;;;11.00;2.50;;;;;;;;;;5052581;28;20629;-74
2021/11/21 12:23:36;;;;;;;6.10;0.95;;;;;;;;;;5051810;28;20360;-72
2021/11/21 12:26:19;;;;;;;10.13;1.73;;;;;;;;;;5053617;28;20196;-73
2021/11/21 12:28:58;;;;;;;11.77;3.28;;;;;;;;;;5052531;28;20183;-72
2021/11/21 12:31:29;;;;;;;4.65;1.17;;;;;;;;;;5056445;28;20181;-74
2021/11/21 12:34:14;;;;;;;6.85;1.58;;;;;;;;;;5053165;28;20229;-73
2021/11/21 12:36:58;;;;;;;15.90;2.28;;;;;;;;;;5052551;28;20180;-71
2021/11/21 12:39:28;;;;;;;5.78;1.45;;;;;;;;;;5053099;28;20197;-71
2021/11/21 12:42:00;;;;;;;9.43;3.08;;;;;;;;;;5053084;28;20670;-74
2021/11/21 12:44:26;;;;;;;5.97;1.60;;;;;;;;;;5053310;28;20374;-72
2021/11/21 12:46:57;;;;;;;4.53;1.17;;;;;;;;;;5062788;28;20679;-72
2021/11/21 12:49:23;;;;;;;11.90;2.15;;;;;;;;;;5037823;28;20199;-71
2021/11/21 12:52:20;;;;;;;6.25;0.90;;;;;;;;;;5052957;28;20331;-71
2021/11/21 12:54:49;;;;;;;4.95;1.08;;;;;;;;;;5010441;28;20206;-72
2021/11/21 12:57:15;;;;;;;4.00;1.35;;;;;;;;;;5061829;28;20196;-71
2021/11/21 12:59:51;;;;;;;5.38;1.10;;;;;;;;;;5056305;28;20181;-72
2021/11/21 13:02:26;;;;;;;16.70;2.20;;;;;;;;;;5053764;28;20637;-71
2021/11/21 13:04:53;;;;;;;4.93;1.02;;;;;;;;;;5051997;28;20358;-71
2021/11/21 13:07:25;;;;;;;3.50;1.02;;;;;;;;;;5055240;28;20181;-72
2021/11/21 13:09:58;;;;;;;5.68;1.05;;;;;;;;;;5054491;28;20255;-73
2021/11/21 13:12:30;;;;;;;6.65;1.10;;;;;;;;;;5052724;28;20213;-71
2021/11/21 13:14:56;;;;;;;8.10;1.30;;;;;;;;;;5054296;28;20581;-72
2021/11/21 13:17:22;;;;;;;4.50;0.80;;;;;;;;;;5056374;28;20575;-71
2021/11/21 13:19:59;;;;;;;8.63;1.52;;;;;;;;;;5073045;28;20173;-71
2021/11/21 13:22:24;;;;;;;6.45;1.45;;;;;;;;;;5050817;28;21929;-71
2021/11/21 13:24:52;;;;;;;6.03;1.40;;;;;;;;;;5051077;28;20183;-75
2021/11/21 13:27:17;;;;;;;5.97;1.10;;;;;;;;;;5051681;28;20168;-72
2021/11/21 13:29:43;;;;;;;3.38;0.80;;;;;;;;;;5051790;28;20181;-73
2021/11/21 13:32:08;;;;;;;3.85;1.35;;;;;;;;;;5049397;28;20207;-70
2021/11/21 13:34:33;;;;;;;5.32;0.90;;;;;;;;;;5038759;28;20176;-71
2021/11/21 13:37:04;;;;;;;4.15;1.67;;;;;;;;;;5052932;28;20678;-72
2021/11/21 13:39:34;;;;;;;2.78;1.02;;;;;;;;;;5048524;28;20211;-74
2021/11/21 13:42:05;;;;;;;2.10;1.02;;;;;;;;;;5041136;28;20175;-72
2021/11/21 13:44:31;;;;;;;4.93;0.80;;;;;;;;;;5051236;28;20651;-72
2021/11/21 13:47:01;;;;;;;4.30;0.65;;;;;;;;;;5050980;28;20185;-71
2021/11/21 13:49:27;;;;;;;3.88;1.08;;;;;;;;;;5051265;28;20234;-71
2021/11/21 13:51:59;;;;;;;3.22;1.23;;;;;;;;;;5053314;28;20181;-73
2021/11/21 13:54:25;;;;;;;2.97;0.75;;;;;;;;;;5053108;28;20226;-71
2021/11/21 13:56:50;;;;;;;4.03;0.73;;;;;;;;;;5051254;28;20253;-73
2021/11/21 13:59:16;;;;;;;3.08;0.90;;;;;;;;;;5049544;28;20671;-74
2021/11/21 14:01:52;;;;;;;3.30;0.70;;;;;;;;;;5051325;28;20177;-72
2021/11/21 14:04:19;;;;;;;5.35;1.55;;;;;;;;;;5050324;28;20187;-70
2021/11/21 14:06:44;;;;;;;6.07;0.90;;;;;;;;;;5051224;28;20213;-71
2021/11/21 14:09:11;;;;;;;4.35;1.30;;;;;;;;;;5040800;28;20284;-71
2021/11/21 14:11:41;;;;;;;7.93;2.42;;;;;;;;;;5049770;28;20529;-73
2021/11/21 14:14:13;;;;;;;4.47;1.45;;;;;;;;;;5036902;22;20332;-75
2021/11/21 14:16:42;;;;;;;7.50;0.80;;;;;;;;;;5020223;28;20218;-75
2021/11/21 14:19:07;;;;;;;7.93;3.60;;;;;;;;;;5019858;28;20296;-78
2021/11/21 14:21:33;;;;;;;7.63;1.30;;;;;;;;;;5016545;28;20195;-79
2021/11/21 14:24:05;;;;;;;5.07;1.00;;;;;;;;;;5014278;28;20198;-76
2021/11/21 14:26:30;;;;;;;3.57;0.93;;;;;;;;;;5014616;28;20171;-76
2021/11/21 14:28:57;;;;;;;6.47;2.50;;;;;;;;;;5014971;28;20205;-80
2021/11/21 14:31:27;;;;;;;3.73;1.47;;;;;;;;;;5014044;28;20276;-78